fb tw yt g+
Meteorologia

Imagen Satelital Infraroja

Smiley face

Imagen Satelital Topes Nubosos

Smiley face

Imagen Satelital Visible

Smiley face

METAR

SAAC 290300Z 20010KT 3000 DZ OVC004 13/13 Q1020 =
SAAG 290300Z 18003KT 4000 -DZBR OVC007 13/12 Q1021 =
SAAJ 290300Z 16007KT CAVOK 08/06 Q1024 =
SAAP 290300Z 18007KT 9999 OVC015 12/11 Q1023 =
SAAR 290300Z 14004KT 9999 FEW025 BKN100 12/10 Q1023 =
SAAV 290300Z 14007KT 9999 SCT012 BKN015 13/11 Q1022 =
SABE 290300Z 16004KT 130V230 9999 BKN033 13/10 Q1023 =
SACE 261800Z 14007KT 9999 FEW035 18/M01 Q1024 =
SACO 290300Z 32005KT CAVOK 02/00 Q1024 =
SADF 290300Z 18003KT 9999 MIFG NSC 10/09 Q1023 =
SADM 290300Z 18003KT 0900 BCFGBR NSC 09/08 Q1022 =
SADP 290300Z 20005KT 9999 MIFG FEW008 08/08 Q1024 =
SAEZ 290300Z 17004KT 9999 FEW043 09/09 Q1023 =
SAME 290300Z 27003KT CAVOK 07/03 Q1021 =
SAMM 290300Z 23003KT CAVOK M01/M05 Q1022 =
SAMR 290300Z 27005KT CAVOK 05/02 Q1021 =
SANC 290300Z 36010KT CAVOK 12/05 Q1020 =
SANE 290200Z 00000KT CAVOK 06/04 Q1022 =
SANR 290000Z 05003KT CAVOK 11/06 Q1022 =
SANL 290300Z 18002KT CAVOK 07/04 Q1021 =
SANT 290300Z 32006KT CAVOK 08/06 Q1022 =
SANU 290300Z 14004KT CAVOK 05/03 Q1022 =
SAOC 290300Z 32005KT CAVOK 06/02 Q1023 =
SAOR 290300Z 00000KT CAVOK 02/01 Q1022 =
SAOS 290000Z 00000KT CAVOK 04/M00 Q1020 =
SAOU 290300Z 05005KT CAVOK 08/02 Q1022 RMK ESTIMATED WIND =
SARC 290300Z 23005KT 9999 BKN006 OVC012 14/13 Q1021 =
SARE 290300Z 23003KT 9999 SCT010 OVC015 14/13 Q1021 =
SARF 290300Z 20002KT 9999 SCT020 15/15 Q1021 =
SARI 290300Z 23004KT 8000 BKN006 OVC008 18/18 Q1021 =
SARL 290200Z 27010KT 5000 DZ OVC006 15/15 Q1019 =
SARP 290300Z 20004KT 9999 SCT008 OVC015 16/15 Q1021 =
SASA 290300Z 36002KT 9999 SCT025 OVC100 09/06 Q1022 =
SASJ 290300Z 00000KT 9999 SCT025 OVC100 10/08 Q1022 =
SATR 290300Z 23005KT 6000 BKN006 BKN200 13/12 Q1021 =
SAVC 290300Z 27007KT CAVOK 05/01 Q1026 =
SAVE 282300Z 25003KT CAVOK 00/M02 Q1020 =
SAVT 290300Z 25006KT CAVOK 03/M01 Q1024 =
SAVV 290300Z 29007KT CAVOK 04/03 Q1022 =
SAVY 290000Z 16006KT CAVOK 05/00 Q1021 =
SAWC 290300Z 00000KT CAVOK M02/M03 Q1022 =
SAWE 290300Z 23004KT CAVOK M01/M02 Q1020 =
SAWG 290300Z 28006KT CAVOK M01/M02 Q1022 =
SAWH 290300Z 32005KT 9999 FEW040 03/M01 Q1019 =
SAWJ 290300Z 29010KT CAVOK 00/M02 Q1024 =
SAWP 290000Z 340/05KT CAVOK M00/M02 Q1022
SAWU 290000Z 00000KT CAVOK 02/01 Q1023 =
SAZA 290300Z 20004KT 9000 NSC 02/02 Q1025 =
SAZB 290300Z 34007KT CAVOK 03/02 Q1024 =
SAZG 290300Z 00000KT CAVOK 06/05 Q1023 =
SAZM 290300Z 25005KT 7000 BKN037 05/04 Q1025 =
SAZN 290300Z 00000KT CAVOK 00/M00 Q1022 =
SAZR 290300Z 36004KT 8000 NSC 05/04 Q1024 =
SAZS 290300Z 19004KT 9999 BKN007 00/M01 Q1023 =
SAZT 290300Z 18004KT CAVOK 02/01 Q1024 =
SAZY 290000Z 00000KT CAVOK M01/M02 Q1019 =
SUAA 282200Z 13008KT 9999 SCT020 BKN070 13/11 Q1022 =
SUCA 2822000Z 11010KT 9999 FEW016 BKN080 13/11 Q1020 =
SUDU 282100Z 15013KT 3000 DZ OVC003 12/12 Q1020 =
SULS 290200Z 14015KT 0900 +DZ OVC005 14/13 Q1020 =
SUMU 290300Z 16010KT 5000 RA BKN010 OVC070 12/12 Q1021 NOSIG =
SUSO 282200Z 18006KT 1500 DZ OVC007 15/14 Q1018 =

TAF

SABE 282300Z 2900/2924 12015KT 8000 -RA SCT008 SCT010 OVC035 TX17/2918Z TN11/2910Z BECMG 2906/2908 16010KT BECMG 2912/2913 18010KT 9999 SCT012 BKN020 BECMG 2919/1921 18015KT CAVOK =
SAZB 282300Z 2900/2924 35005KT CAVOK TX12/2918Z TN01/2910Z BECMG 2908/2910 29005KT 3000 BR NSC BECMG 2914/2916 CAVOK =
SAZS 282300Z 2900/2924 14005KT CAVOK TX05/2918Z TNM04/2910Z PROB30 2910/2913 3000 BR BECMG 2914/2915 09010KT CAVOK =
SANC 282300Z 2900/2924 02010KT 9999 SCT040 TX20/2918Z TN07/2910Z =
SAZY 282300Z 2900/2924 VRB02KT CAVOK TX04/2918Z TNM08/2912Z PROB30 2907/2909 4000 BR BECMG 2912/2914 09005KT CAVOK =
SAVC 282300Z 2900/2924 VRB05KT CAVOK TX14/2919Z TN05/2912Z PROB30 TEMPO 2903/2908 5000 BR BECMG 2912/2914 34010KT 9999 NSW SCT020 BKN040 =
SACO 282300Z 2900/2924 09005KT 9999 NSC TX15/2918Z TN02/2910Z TEMPO 2908/2911 VRB03KT 5000 BR SCT010 BKN025 BECMG 2912/2915 09010KT 9999 BKN020 =
SARC 282300Z 2900/2924 20005KT 9999 SCT008 OVC015 TX16/2918Z TN11/2908Z PROB40 2902/2907 6000 DZ BKN006 OVC010 PROB40 2908/2910 0500 FG BKN005 OVC010 BECMG 2911/2913 9999 OVC015 BECMG 2918/2920 5000 +DZ BKN008 OVC020 =
SAWC 282300Z 2900/2924 11005KT CAVOK TX09/2919Z TN01/2912Z =
SAVE 282300Z 2900/2924 25005KT CAVOK TX10/2919Z TNM06/2912Z =
SAEZ 282300Z 2900/2924 15006KT 9999 SCT030 TX15/2918Z TN09/2909Z BECMG 2904/2906 5000 BR BKN010 PROB30 TEMPO 2907/2911 0700 FG SCT005 BECMG 2313/2915 16008KT 9999 FEW030 =
SARF 282300Z 2900/2924 20005KT 9999 OVC010 TX16/2918Z TN15/2908Z BECMG 2907/2909 500 +DZ BKN006 OVC015 BECMG 2915/2917 8000 -DZ OVC008 =
SASJ 282300Z 2900/2924 VRB03KT 9999 OVC015 TX15/2918Z TN08/2810Z PROB40 TEMPO 2908/2911 VRB03KT 5000 BR DZ OVC010 BECMG 2912/2915 02010KT 9999 BKN010 OVC020 =
SANL 282300Z 2900/2924 VRB03KT 9999 SCT035 TX19/2918Z TN06/2910Z =
SAZM 282300Z 2900/2924 VRB02KT 7000 SCT020 BKN060 TX13/2918Z TN03/2910Z BECMG 2904/2906 20003KT 5000 BR PROB40 2910/2912 2000 BR BECMG 2914/2916 20010KT CAVOK BECMG 2920/2922 20005KT =
SAME 282300Z 2900/2924 14005KT 9999 FEW040 SCT080 TN05/2910Z TX14/2920Z PROB40 TEMPO 2909/2913 6000 HZFU SCT035 =
SAZN 282300Z 2900/2924 VRB02KT CAVOK TX08/2918Z TNM03/2910Z BECMG 2909/2910 18005KT 5000 BR NSC BECMG 2914/2916 14005KT CAVOK BECMG 2918/2920 11005KT =
SAAP 282300Z 2900/2924 14010KT 9999 BKN008 TX16/2918Z TN09/2910Z BECMG 2906/2908 18010KT BECMG 2910/2912 8000 BECMG 2913/2914 9999 SCT015 SCT025 BECMG 2918/2921 14010KT 9999 BKN015 BKN040 PROB40 2920/2922 12010KT 8000 RA OVC015 =
SARP 282300Z 2900/2924 24005KT 9999 SCT008 OVC015 TX18/2918Z TN16/2908Z BECMG 2906/2908 2000 +DZ BR OVC005 BKN010 BECMG 2916/2918 5000 DZ SCT006 OVC010 =
SARE 282300Z 2900/2924 20005KT 9999 SCT008 OVC015 TX16/2918Z TN11/2908Z PROB40 2902/2907 6000 DZ BKN006 OVC010 PROB40 2908/2910 0500 FG BKN005 OVC010 BECMG 2911/2913 9999 OVC015 BECMG 2918/2920 5000 +DZ BKN008 OVC020
SAWG 282300Z 2900/2924 23010KT CAVOK TX08/2919Z TN00/2912Z BECMG 2906/2908 36010KT 9999 FEW030 SCT090 =
SAWE 282300Z 2900/2924 27010KT 9999 FEW020 TX07/2919Z TN00/2912Z BECMG 2906/2908 32010KT PROB40 TEMPO 2907/2912 2000 BR =
SAAR 282300Z 2900/2924 09005KT 8000 SCT010 BKN045 TX17/2918Z TN07/2910Z BECMG 2904/2906 16005KT BKN010 BECMG 2907/2909 2000 BR BKN008 BECMG 2912/2914 14010KT 9999 SCT020 SCT200 BECMG 2918/2920 16005KT 9999 SCT030 BKN060 =
SASA 282300Z 2900/2924 02005KT 9999 SCT015 BKN045 TX14/2918Z TN06/2910Z PROB40 TEMPO 2908/2911 VRB03KT 5000 BR DZ OVC010 BECMG 2912/2915 02010KT 9999 BKN010 OVC020 =
SADF 282300Z 2900/2924 12005KT 8000 -RA SCT008 SCT010 OVC035 TX17/2918Z TN11/2910Z BECMG 2906/2908 16010KT BECMG 2912/2913 18010KT 9999 SCT012 BKN020 BECMG 2919/1921 18015KT CAVOK =
SANU 282300Z 2900/2924 18005KT 9999 FEW040 TNM00/2910Z TX15/2920Z PROB30 TEMPO 2909/2913 16005KT 3000 BR SCT035 =
SAOU 282300Z 2900/2924 14005KT 9999 FEW030 SCT080 TN02/2909Z TX16/2919Z =
SAMR 282300Z 2900/2924 05005KT 9999 FEW040 SCT080 TN01/2910Z TX14/2920Z =
SAZR 282300Z 2900/2924 02003KT 2000 BR NSC TX12/2918Z TN02/2909Z BECMG 2906/2908 0200 FG SCT008 BECMG 2913/2915 05005KT 3000 BR BKN010 BECMG 2916/2918 02010KT CAVOK =
SANE 282300Z 2900/2924 VRB03KT 9999 NSC TX18/2918Z TN07/2910Z PROB40 TEMPO 2909/2912 5000 BR NSC =
SAAV 282300Z 2900/2924 14010KT 9999 BKN010 TX16/2918Z TN08/2910Z BECMG 2906/2908 18010KT BECMG 2910/2912 8000 BECMG 2913/2914 9999 SCT015 SCT025 BECMG 2918/2921 14010KT 9999 BKN015 BKN040 PROB40 2920/2922 12010KT 8000 RA OVC015 =
SANR 282300Z 2900/2924 36005KT 9999 SCT030 TX17/2918Z TN08/2910Z TEMPO 2908/2911 3000 BR BKN012 =
SAVT 282300Z 2900/2924 VRB05 CAVOK TX12/2919Z TN02/2912Z =
SANT 282300Z 2900/2924 02005KT 9999 SCT018 BKN020 TX16/2918Z TN07/2910Z TEMPO 2908/2912 VRB03KT 5000 DZ BR BKN010 OVC025 BECMG 2915/2918 18005KT =
SAWH 282300Z 2900/2924 25010KT 9999 FEW040 SCT090 TX08/2919Z TNM01/2912Z PROB30 TEMPO 2905/2910 2000 BR BECMG 2908/2910 34018KT =
SAVV 282300Z 2900/2924 32008KT CAVOK TX15/2919Z TN03/2912Z =
SUCA 282330Z 2900/2924 14010KT 9999 SCT020 BKN070 TX17/2918Z TN13/2910Z TEMPO 2900/2912 5000 RA BKN015 OVC070 =
SULS 282330Z 2900/2924 14010KT 9999 SCT020 BKN070 TX17/2918Z TN13/2910Z TEMPO 2900/2912 5000 RA BKN015 OVC070 =
SUAA 282330Z 2900/2924 14010KT 9999 SCT020 BKN070 TX17/2918Z TN13/2910Z TEMPO 2900/2912 5000 RA BKN015 OVC070 =
SUMU 282330Z 2900/2924 14010KT 9999 SCT020 BKN070 TX17/2918Z TN13/2910Z TEMPO 2900/2912 5000 RA BKN015 OVC070 =